Time;durP1;ratioP1;P1;durP2;ratioP2;P2;SDS_P1;SDS_P2;PMS_P1;PMS_P2;Temp;Humidity;BMP_temperature;BMP_pressure;BME280_temperature;BME280_humidity;BME280_pressure;Samples;Min_cycle;Max_cycle;Signal;HPM_P1;HPM_P2
2021/07/01 00:01:05;;;;;;;6.00;1.60;;;;;;;;;;5029742;28;20103;-45
2021/07/01 00:03:31;;;;;;;5.75;1.50;;;;;;;;;;5041754;28;20025;-47
2021/07/01 00:05:57;;;;;;;8.68;1.95;;;;;;;;;;5057083;28;20031;-47
2021/07/01 00:08:23;;;;;;;18.75;8.02;;;;;;;;;;5056452;28;20025;-46
2021/07/01 00:10:49;;;;;;;36.85;18.35;;;;;;;;;;5056355;28;20033;-46
2021/07/01 00:13:16;;;;;;;40.58;22.48;;;;;;;;;;5056570;28;20044;-46
2021/07/01 00:15:42;;;;;;;20.10;8.70;;;;;;;;;;5056487;28;20053;-46
2021/07/01 00:18:08;;;;;;;31.95;16.48;;;;;;;;;;5056521;28;20756;-45
2021/07/01 00:20:34;;;;;;;41.72;21.45;;;;;;;;;;5056305;28;20036;-46
2021/07/01 00:23:00;;;;;;;47.30;29.08;;;;;;;;;;5056502;28;20033;-45
2021/07/01 00:25:26;;;;;;;23.70;14.75;;;;;;;;;;5056161;28;20029;-43
2021/07/01 00:27:53;;;;;;;19.60;10.95;;;;;;;;;;5056228;28;20032;-45
2021/07/01 00:30:19;;;;;;;58.63;34.70;;;;;;;;;;5056362;28;20071;-44
2021/07/01 00:32:46;;;;;;;19.20;10.15;;;;;;;;;;5056327;28;20021;-46
2021/07/01 00:35:13;;;;;;;12.82;7.00;;;;;;;;;;5056223;28;20018;-44
2021/07/01 00:37:39;;;;;;;22.02;12.27;;;;;;;;;;5056141;28;20029;-42
2021/07/01 00:40:06;;;;;;;28.27;16.45;;;;;;;;;;5055889;28;20025;-45
2021/07/01 00:42:34;;;;;;;41.20;23.27;;;;;;;;;;5055796;28;20021;-47
2021/07/01 00:45:01;;;;;;;23.23;13.60;;;;;;;;;;5056156;28;20406;-47
2021/07/01 00:47:27;;;;;;;13.65;7.82;;;;;;;;;;5056087;28;20441;-46
2021/07/01 00:49:53;;;;;;;53.50;31.77;;;;;;;;;;5055653;28;20385;-47
2021/07/01 00:52:20;;;;;;;20.42;10.10;;;;;;;;;;5055790;28;20029;-46
2021/07/01 00:54:46;;;;;;;13.90;7.13;;;;;;;;;;5055715;28;20036;-45
2021/07/01 00:57:12;;;;;;;68.22;37.88;;;;;;;;;;5055509;28;20032;-46
2021/07/01 00:59:39;;;;;;;26.50;12.57;;;;;;;;;;5055573;28;20033;-44
2021/07/01 01:02:05;;;;;;;13.65;5.22;;;;;;;;;;5055545;28;20032;-45
2021/07/01 01:04:32;;;;;;;6.10;3.00;;;;;;;;;;5055751;28;20056;-46
2021/07/01 01:06:58;;;;;;;3.72;1.80;;;;;;;;;;5055508;28;20025;-46
2021/07/01 01:09:24;;;;;;;15.80;9.38;;;;;;;;;;5054749;28;20021;-46
2021/07/01 01:11:50;;;;;;;17.52;4.78;;;;;;;;;;5055325;28;20095;-45
2021/07/01 01:14:16;;;;;;;20.83;11.20;;;;;;;;;;5055051;28;20045;-44
2021/07/01 01:16:42;;;;;;;9.43;6.28;;;;;;;;;;5054775;28;20033;-44
2021/07/01 01:19:08;;;;;;;43.55;26.40;;;;;;;;;;5055445;28;20079;-42
2021/07/01 01:21:36;;;;;;;28.35;17.48;;;;;;;;;;5055244;28;20104;-48
2021/07/01 01:24:04;;;;;;;47.97;25.67;;;;;;;;;;5055055;28;20473;-43
2021/07/01 01:26:30;;;;;;;39.38;20.45;;;;;;;;;;5054975;28;20021;-43
2021/07/01 01:28:56;;;;;;;26.67;13.13;;;;;;;;;;5055230;28;20040;-46
2021/07/01 01:31:22;;;;;;;10.32;3.60;;;;;;;;;;5054845;28;20457;-47
2021/07/01 01:33:52;;;;;;;26.50;13.65;;;;;;;;;;5054935;28;20025;-44
2021/07/01 01:36:19;;;;;;;7.28;3.92;;;;;;;;;;5054924;28;20029;-43
2021/07/01 01:38:45;;;;;;;44.45;22.08;;;;;;;;;;5054859;28;20056;-44
2021/07/01 01:41:11;;;;;;;106.50;63.80;;;;;;;;;;5054757;28;20017;-44
2021/07/01 01:43:37;;;;;;;16.70;9.23;;;;;;;;;;5054647;28;20025;-43
2021/07/01 01:46:04;;;;;;;15.07;5.53;;;;;;;;;;5054933;28;20029;-44
2021/07/01 01:48:30;;;;;;;6.05;3.50;;;;;;;;;;5054730;28;20055;-44
2021/07/01 01:50:56;;;;;;;7.60;2.55;;;;;;;;;;5054619;28;20036;-46
2021/07/01 01:53:22;;;;;;;6.00;2.92;;;;;;;;;;5054593;28;20465;-46
2021/07/01 01:55:48;;;;;;;7.13;2.25;;;;;;;;;;5054494;28;20092;-45
2021/07/01 01:58:14;;;;;;;14.10;7.15;;;;;;;;;;5054762;28;20032;-43
2021/07/01 02:00:40;;;;;;;92.45;55.42;;;;;;;;;;5054677;28;20028;-45
2021/07/01 02:03:06;;;;;;;54.17;27.77;;;;;;;;;;5054455;28;20029;-45
2021/07/01 02:05:33;;;;;;;38.50;21.95;;;;;;;;;;5054332;28;20370;-46
2021/07/01 02:07:59;;;;;;;89.20;48.50;;;;;;;;;;5054291;28;20025;-42
2021/07/01 02:10:26;;;;;;;11.80;5.47;;;;;;;;;;5054183;28;20037;-46
2021/07/01 02:12:55;;;;;;;19.70;10.70;;;;;;;;;;5054311;28;20049;-45
2021/07/01 02:15:22;;;;;;;7.80;3.60;;;;;;;;;;5054104;28;20190;-46
2021/07/01 02:17:50;;;;;;;5.18;1.70;;;;;;;;;;5054145;28;20544;-45
2021/07/01 02:20:17;;;;;;;3.67;1.95;;;;;;;;;;5053348;28;20484;-43
2021/07/01 02:22:44;;;;;;;4.90;1.55;;;;;;;;;;5053912;28;20068;-45
2021/07/01 02:25:10;;;;;;;2.83;1.60;;;;;;;;;;5053926;28;20047;-43
2021/07/01 02:27:36;;;;;;;3.72;1.65;;;;;;;;;;5054002;28;20029;-44
2021/07/01 02:30:03;;;;;;;3.08;1.52;;;;;;;;;;5053850;28;20036;-45
2021/07/01 02:32:30;;;;;;;5.13;1.52;;;;;;;;;;5053909;28;20154;-44
2021/07/01 02:34:56;;;;;;;4.82;1.90;;;;;;;;;;5053868;28;20025;-47
2021/07/01 02:37:23;;;;;;;3.72;1.35;;;;;;;;;;5053805;28;20354;-46
2021/07/01 02:39:49;;;;;;;5.63;1.63;;;;;;;;;;5053752;28;20036;-45
2021/07/01 02:42:15;;;;;;;3.75;1.65;;;;;;;;;;5053785;28;20362;-46
2021/07/01 02:44:41;;;;;;;4.57;1.95;;;;;;;;;;5053604;28;20068;-43
2021/07/01 02:47:07;;;;;;;6.20;1.92;;;;;;;;;;5053900;28;20037;-46
2021/07/01 02:49:34;;;;;;;4.47;1.35;;;;;;;;;;5053795;28;20377;-46
2021/07/01 02:52:00;;;;;;;5.80;1.90;;;;;;;;;;5053701;28;20035;-43
2021/07/01 02:54:26;;;;;;;8.27;2.08;;;;;;;;;;5053604;28;20025;-42
2021/07/01 02:56:54;;;;;;;5.57;1.58;;;;;;;;;;5053458;28;20048;-46
2021/07/01 02:59:21;;;;;;;3.30;1.73;;;;;;;;;;5053642;28;20032;-45
2021/07/01 03:01:50;;;;;;;5.50;1.90;;;;;;;;;;5053650;28;20112;-43
2021/07/01 03:04:16;;;;;;;8.68;4.43;;;;;;;;;;5053735;28;20025;-43
2021/07/01 03:06:43;;;;;;;3.95;2.40;;;;;;;;;;5053528;28;20025;-45
2021/07/01 03:09:09;;;;;;;3.25;2.25;;;;;;;;;;5053211;28;20535;-43
2021/07/01 03:11:36;;;;;;;4.95;1.98;;;;;;;;;;5053263;28;20037;-46
2021/07/01 03:14:02;;;;;;;9.32;2.30;;;;;;;;;;5053096;28;20041;-46
2021/07/01 03:16:28;;;;;;;8.25;2.42;;;;;;;;;;5053283;28;20041;-45
2021/07/01 03:18:54;;;;;;;5.18;1.85;;;;;;;;;;5053238;28;20518;-46
2021/07/01 03:21:21;;;;;;;6.35;1.73;;;;;;;;;;5053352;28;20025;-46
2021/07/01 03:23:48;;;;;;;3.17;1.70;;;;;;;;;;5053278;28;20032;-47
2021/07/01 03:26:15;;;;;;;8.55;1.55;;;;;;;;;;5053174;28;20025;-46
2021/07/01 03:28:41;;;;;;;5.13;1.70;;;;;;;;;;5053376;28;20368;-46
2021/07/01 03:31:08;;;;;;;5.15;1.80;;;;;;;;;;5053062;28;20174;-45
2021/07/01 03:33:34;;;;;;;24.10;1.92;;;;;;;;;;5057084;28;20358;-46
2021/07/01 03:36:01;;;;;;;24.08;2.67;;;;;;;;;;5057561;28;20029;-45
2021/07/01 03:38:27;;;;;;;1.60;1.40;;;;;;;;;;5057307;28;20025;-46
2021/07/01 03:40:54;;;;;;;43.05;3.60;;;;;;;;;;5056985;28;20032;-45
2021/07/01 03:43:20;;;;;;;32.17;7.88;;;;;;;;;;5057153;28;20110;-45
2021/07/01 03:45:46;;;;;;;15.00;6.05;;;;;;;;;;5057284;28;20025;-46
2021/07/01 03:48:12;;;;;;;11.23;6.90;;;;;;;;;;5057143;28;20021;-46
2021/07/01 03:50:39;;;;;;;5.55;3.83;;;;;;;;;;5056938;28;20389;-43
2021/07/01 03:53:05;;;;;;;4.47;1.83;;;;;;;;;;5056988;28;20097;-45
2021/07/01 03:55:31;;;;;;;3.65;1.42;;;;;;;;;;5056879;28;20021;-44
2021/07/01 03:57:57;;;;;;;11.13;4.43;;;;;;;;;;5056908;28;20163;-42
2021/07/01 04:00:23;;;;;;;10.80;5.93;;;;;;;;;;5056870;28;20029;-44
2021/07/01 04:02:49;;;;;;;10.90;5.80;;;;;;;;;;5056906;28;20033;-46
2021/07/01 04:05:16;;;;;;;5.97;3.60;;;;;;;;;;5056758;28;20032;-43
2021/07/01 04:07:42;;;;;;;4.13;2.13;;;;;;;;;;5056678;28;20489;-45
2021/07/01 04:10:11;;;;;;;4.50;1.13;;;;;;;;;;5056503;28;20032;-44
2021/07/01 04:12:38;;;;;;;6.53;1.13;;;;;;;;;;5056437;28;20039;-43
2021/07/01 04:15:05;;;;;;;4.53;1.40;;;;;;;;;;5056509;28;20574;-45
2021/07/01 04:17:31;;;;;;;6.22;1.85;;;;;;;;;;5056723;28;20021;-45
2021/07/01 04:19:57;;;;;;;6.53;2.63;;;;;;;;;;5056571;28;20032;-44
2021/07/01 04:22:24;;;;;;;2.92;1.42;;;;;;;;;;5056656;28;20021;-44
2021/07/01 04:24:51;;;;;;;3.78;1.20;;;;;;;;;;5056366;28;20096;-44
2021/07/01 04:27:17;;;;;;;1.95;1.10;;;;;;;;;;5056415;28;20121;-44
2021/07/01 04:29:45;;;;;;;1.92;1.30;;;;;;;;;;5056396;28;20401;-44
2021/07/01 04:32:11;;;;;;;2.05;1.20;;;;;;;;;;5056310;28;20478;-45
2021/07/01 04:34:38;;;;;;;1.38;1.15;;;;;;;;;;5056218;28;20423;-45
2021/07/01 04:37:04;;;;;;;0.95;0.90;;;;;;;;;;5056463;28;20029;-44
2021/07/01 04:39:30;;;;;;;1.65;0.85;;;;;;;;;;5056039;28;20536;-44
2021/07/01 04:41:56;;;;;;;1.00;0.90;;;;;;;;;;5056062;28;20036;-45
2021/07/01 04:44:22;;;;;;;1.67;1.17;;;;;;;;;;5054908;28;20037;-45
2021/07/01 04:46:49;;;;;;;3.08;0.70;;;;;;;;;;5056191;28;20029;-44
2021/07/01 04:49:15;;;;;;;4.13;2.72;;;;;;;;;;5056107;28;20033;-44
2021/07/01 04:51:42;;;;;;;5.05;2.35;;;;;;;;;;5055936;28;20040;-44
2021/07/01 04:54:08;;;;;;;1.60;0.70;;;;;;;;;;5055747;28;20539;-44
2021/07/01 04:56:46;;;;;;;3.65;1.25;;;;;;;;;;5055843;28;20029;-44
2021/07/01 04:59:12;;;;;;;2.63;1.27;;;;;;;;;;5055886;28;20027;-45
2021/07/01 05:01:39;;;;;;;1.52;0.90;;;;;;;;;;5055712;28;20553;-46
2021/07/01 05:04:08;;;;;;;1.98;0.80;;;;;;;;;;5055705;28;20036;-44
2021/07/01 05:06:37;;;;;;;3.92;1.67;;;;;;;;;;5055565;28;20116;-43
2021/07/01 05:09:04;;;;;;;12.45;7.05;;;;;;;;;;5055475;28;20476;-45
2021/07/01 05:11:30;;;;;;;48.55;33.53;;;;;;;;;;5055449;28;20123;-50
2021/07/01 05:13:56;;;;;;;15.32;10.20;;;;;;;;;;5055279;28;20063;-46
2021/07/01 05:16:23;;;;;;;12.63;6.53;;;;;;;;;;5055346;28;20495;-44
2021/07/01 05:18:49;;;;;;;9.43;2.08;;;;;;;;;;5055441;28;20029;-43
2021/07/01 05:21:15;;;;;;;7.50;3.10;;;;;;;;;;5055322;28;20029;-42
2021/07/01 05:23:41;;;;;;;8.05;3.22;;;;;;;;;;5055497;28;20104;-42
2021/07/01 05:26:07;;;;;;;3.25;1.88;;;;;;;;;;5055374;28;20029;-46
2021/07/01 05:28:33;;;;;;;4.28;1.23;;;;;;;;;;5055395;28;20083;-46
2021/07/01 05:30:59;;;;;;;2.65;0.80;;;;;;;;;;5055244;28;20037;-45
2021/07/01 05:33:25;;;;;;;2.78;0.88;;;;;;;;;;5055301;28;20457;-46
2021/07/01 05:35:52;;;;;;;1.63;0.63;;;;;;;;;;5055117;28;20040;-46
2021/07/01 05:38:18;;;;;;;1.20;0.50;;;;;;;;;;5055133;28;20017;-44
2021/07/01 05:40:44;;;;;;;0.93;0.60;;;;;;;;;;5054888;28;20025;-44
2021/07/01 05:43:10;;;;;;;2.72;0.88;;;;;;;;;;5054769;28;20029;-46
2021/07/01 05:45:36;;;;;;;2.05;0.60;;;;;;;;;;5055089;28;20025;-43
2021/07/01 05:48:02;;;;;;;3.10;0.73;;;;;;;;;;5054933;28;20488;-46
2021/07/01 05:50:30;;;;;;;0.63;0.63;;;;;;;;;;5054852;28;20028;-43
2021/07/01 05:53:05;;;;;;;2.20;0.55;;;;;;;;;;5054943;28;20025;-44
2021/07/01 05:55:31;;;;;;;2.47;0.80;;;;;;;;;;5054272;28;20021;-44
2021/07/01 05:57:57;;;;;;;0.88;0.50;;;;;;;;;;5054887;28;20029;-46
2021/07/01 06:00:24;;;;;;;2.25;0.85;;;;;;;;;;5054638;28;20033;-45
2021/07/01 06:02:50;;;;;;;1.05;0.60;;;;;;;;;;5053443;28;20385;-45
2021/07/01 06:05:19;;;;;;;1.58;0.45;;;;;;;;;;5054515;28;20021;-45
2021/07/01 06:07:49;;;;;;;2.83;0.60;;;;;;;;;;5054507;28;20155;-45
2021/07/01 06:10:17;;;;;;;1.30;0.60;;;;;;;;;;5054257;28;20078;-46
2021/07/01 06:12:43;;;;;;;2.95;0.68;;;;;;;;;;5054390;28;20033;-45
2021/07/01 06:15:11;;;;;;;3.28;0.70;;;;;;;;;;5054159;28;20456;-45
2021/07/01 06:17:38;;;;;;;2.10;0.73;;;;;;;;;;5054371;28;20025;-45
2021/07/01 06:20:06;;;;;;;2.03;0.80;;;;;;;;;;5054185;28;20021;-44
2021/07/01 06:22:32;;;;;;;1.33;0.70;;;;;;;;;;5054216;28;20083;-43
2021/07/01 06:24:59;;;;;;;1.90;0.82;;;;;;;;;;5054168;28;20075;-44
2021/07/01 06:27:36;;;;;;;3.75;0.82;;;;;;;;;;5054048;28;20060;-45
2021/07/01 06:30:10;;;;;;;1.80;0.68;;;;;;;;;;5054169;28;20021;-43
2021/07/01 06:32:44;;;;;;;3.88;0.70;;;;;;;;;;5053851;28;20037;-44
2021/07/01 06:35:11;;;;;;;1.70;1.00;;;;;;;;;;5053932;28;20022;-45
2021/07/01 06:37:38;;;;;;;5.22;1.08;;;;;;;;;;5054017;28;20025;-44
2021/07/01 06:40:05;;;;;;;1.10;0.70;;;;;;;;;;5053954;28;20527;-44
2021/07/01 06:42:32;;;;;;;2.50;0.80;;;;;;;;;;5053639;28;20025;-44
2021/07/01 06:45:01;;;;;;;2.70;1.02;;;;;;;;;;5053782;28;20033;-45
2021/07/01 06:47:28;;;;;;;3.78;1.40;;;;;;;;;;5053851;28;20484;-43
2021/07/01 06:49:55;;;;;;;1.83;0.80;;;;;;;;;;5053762;28;20029;-44
2021/07/01 06:52:21;;;;;;;1.05;0.60;;;;;;;;;;5053683;28;20037;-45
2021/07/01 06:54:48;;;;;;;1.55;0.98;;;;;;;;;;5053735;28;20024;-44
2021/07/01 06:57:14;;;;;;;3.53;0.82;;;;;;;;;;5053604;28;20059;-43
2021/07/01 06:59:41;;;;;;;3.08;0.73;;;;;;;;;;5053514;28;20051;-43
2021/07/01 07:02:08;;;;;;;7.80;0.60;;;;;;;;;;5053577;28;20404;-45
2021/07/01 07:04:34;;;;;;;1.35;0.70;;;;;;;;;;5053442;28;20469;-45
2021/07/01 07:07:04;;;;;;;0.60;0.50;;;;;;;;;;5052948;28;20111;-44
2021/07/01 07:09:30;;;;;;;0.50;0.50;;;;;;;;;;5053462;28;20461;-44
2021/07/01 07:11:56;;;;;;;2.22;1.05;;;;;;;;;;5053328;28;20370;-43
2021/07/01 07:14:22;;;;;;;1.40;0.63;;;;;;;;;;5053120;28;20124;-44
2021/07/01 07:16:49;;;;;;;1.33;0.68;;;;;;;;;;5053523;28;20040;-45
2021/07/01 07:19:17;;;;;;;1.75;0.52;;;;;;;;;;5053166;28;20503;-43
2021/07/01 07:21:45;;;;;;;2.45;0.70;;;;;;;;;;5053520;28;20087;-45
2021/07/01 07:24:13;;;;;;;0.80;0.63;;;;;;;;;;5053233;28;20019;-44
2021/07/01 07:26:39;;;;;;;2.50;0.63;;;;;;;;;;5053165;28;20258;-43
2021/07/01 07:29:08;;;;;;;1.30;0.60;;;;;;;;;;5053171;28;20031;-43
2021/07/01 07:31:38;;;;;;;1.05;0.73;;;;;;;;;;5053171;28;20037;-44
2021/07/01 07:34:04;;;;;;;3.28;1.70;;;;;;;;;;5053210;28;20017;-44
2021/07/01 07:36:33;;;;;;;4.38;0.80;;;;;;;;;;5053017;28;20453;-43
2021/07/01 07:38:59;;;;;;;1.15;0.80;;;;;;;;;;5053569;28;20405;-42
2021/07/01 07:41:26;;;;;;;1.38;0.50;;;;;;;;;;5052988;28;20473;-44
2021/07/01 07:43:53;;;;;;;8.73;1.15;;;;;;;;;;5052818;28;20029;-46
2021/07/01 07:46:20;;;;;;;5.03;3.95;;;;;;;;;;5052634;28;20037;-43
2021/07/01 07:48:46;;;;;;;73.43;48.22;;;;;;;;;;5052290;28;20505;-44
2021/07/01 07:51:16;;;;;;;10.43;6.47;;;;;;;;;;5052284;28;20167;-43
2021/07/01 07:53:45;;;;;;;38.45;22.98;;;;;;;;;;5052296;28;20027;-43
2021/07/01 07:56:11;;;;;;;7.65;5.75;;;;;;;;;;5052233;28;20036;-43
2021/07/01 07:58:42;;;;;;;17.95;12.48;;;;;;;;;;5052208;28;20100;-42
2021/07/01 08:01:09;;;;;;;30.48;20.73;;;;;;;;;;5052371;28;20044;-43
2021/07/01 08:03:37;;;;;;;108.72;66.40;;;;;;;;;;5051605;28;20021;-43
2021/07/01 08:06:05;;;;;;;86.82;54.33;;;;;;;;;;5052303;28;20025;-41
2021/07/01 08:08:32;;;;;;;18.90;10.90;;;;;;;;;;5052185;28;20024;-43
2021/07/01 08:11:03;;;;;;;21.58;12.32;;;;;;;;;;5051979;28;20079;-45
2021/07/01 08:13:29;;;;;;;13.43;6.55;;;;;;;;;;5051838;28;20033;-44
2021/07/01 08:15:58;;;;;;;43.90;18.60;;;;;;;;;;5052526;28;20036;-43
2021/07/01 08:18:38;;;;;;;33.67;17.15;;;;;;;;;;5054164;28;20382;-41
2021/07/01 08:21:05;;;;;;;59.33;34.78;;;;;;;;;;5056314;28;20107;-41
2021/07/01 08:23:32;;;;;;;50.63;28.58;;;;;;;;;;5056279;28;20032;-43
2021/07/01 08:25:59;;;;;;;150.30;98.30;;;;;;;;;;5055536;28;20029;-42
2021/07/01 08:28:25;;;;;;;44.05;22.88;;;;;;;;;;5055698;28;20029;-42
2021/07/01 08:30:53;;;;;;;14.93;6.38;;;;;;;;;;5056061;28;20547;-43
2021/07/01 08:33:20;;;;;;;54.92;15.90;;;;;;;;;;5056110;28;20037;-45
2021/07/01 08:35:54;;;;;;;15.32;6.18;;;;;;;;;;5055975;28;20057;-45
2021/07/01 08:38:20;;;;;;;18.83;5.55;;;;;;;;;;5056020;28;20120;-42
2021/07/01 08:40:47;;;;;;;5.78;2.88;;;;;;;;;;5056157;28;20025;-44
2021/07/01 08:43:17;;;;;;;6.28;2.00;;;;;;;;;;5056114;28;20029;-42
2021/07/01 08:45:43;;;;;;;3.40;0.77;;;;;;;;;;5056113;28;20036;-45
2021/07/01 08:48:20;;;;;;;5.38;1.42;;;;;;;;;;5056098;28;20021;-45
2021/07/01 08:50:53;;;;;;;5.38;0.80;;;;;;;;;;5056002;28;20048;-46
2021/07/01 08:53:38;;;;;;;6.32;1.63;;;;;;;;;;5055884;28;20118;-42
2021/07/01 08:56:04;;;;;;;7.15;1.40;;;;;;;;;;5055676;28;20028;-43
2021/07/01 08:58:32;;;;;;;3.00;1.30;;;;;;;;;;5056069;28;20021;-43
2021/07/01 09:01:00;;;;;;;8.63;4.53;;;;;;;;;;5055791;28;20029;-45
2021/07/01 09:03:29;;;;;;;7.50;2.63;;;;;;;;;;5055960;28;20070;-46
2021/07/01 09:05:55;;;;;;;4.88;1.30;;;;;;;;;;5055711;28;20029;-45
2021/07/01 09:08:23;;;;;;;2.30;0.90;;;;;;;;;;5055627;28;20112;-43
2021/07/01 09:10:53;;;;;;;4.82;1.20;;;;;;;;;;5055413;28;20033;-44
2021/07/01 09:13:22;;;;;;;8.30;1.55;;;;;;;;;;5054778;28;20055;-41
2021/07/01 09:15:49;;;;;;;3.08;0.80;;;;;;;;;;5054400;28;20041;-43
2021/07/01 09:18:15;;;;;;;4.53;0.93;;;;;;;;;;5054801;28;20101;-46
2021/07/01 09:20:41;;;;;;;6.28;3.72;;;;;;;;;;5054731;28;20021;-44
2021/07/01 09:23:09;;;;;;;3.22;2.80;;;;;;;;;;5054623;28;20037;-44
2021/07/01 09:25:35;;;;;;;11.77;6.13;;;;;;;;;;5054652;28;20061;-45
2021/07/01 09:28:01;;;;;;;4.97;3.05;;;;;;;;;;5054682;28;20021;-42
2021/07/01 09:30:29;;;;;;;5.22;3.25;;;;;;;;;;5053987;28;20025;-44
2021/07/01 09:32:59;;;;;;;14.88;10.48;;;;;;;;;;5054637;28;20044;-47
2021/07/01 09:35:26;;;;;;;15.38;11.95;;;;;;;;;;5054477;28;20060;-46
2021/07/01 09:37:53;;;;;;;9.45;5.07;;;;;;;;;;5054424;28;20059;-43
2021/07/01 09:40:20;;;;;;;7.80;6.00;;;;;;;;;;5054540;28;20130;-46
2021/07/01 09:43:12;;;;;;;16.30;12.23;;;;;;;;;;5051797;28;20025;-47
2021/07/01 09:45:38;;;;;;;11.38;7.80;;;;;;;;;;5052328;28;20458;-44
2021/07/01 09:48:08;;;;;;;61.00;37.30;;;;;;;;;;5051481;28;20067;-42
2021/07/01 09:50:37;;;;;;;100.03;63.55;;;;;;;;;;5053834;28;20496;-43
2021/07/01 09:53:04;;;;;;;13.25;9.32;;;;;;;;;;5052653;28;20389;-43
2021/07/01 09:55:30;;;;;;;3.97;3.08;;;;;;;;;;5053462;28;20036;-43
2021/07/01 09:58:00;;;;;;;23.17;12.93;;;;;;;;;;5053155;28;20036;-41
2021/07/01 10:00:31;;;;;;;14.50;10.23;;;;;;;;;;5050947;28;20028;-43
2021/07/01 10:03:06;;;;;;;15.32;9.57;;;;;;;;;;5053478;28;20464;-43
2021/07/01 10:05:33;;;;;;;3.30;2.25;;;;;;;;;;5054501;28;20056;-43
2021/07/01 10:07:59;;;;;;;9.05;4.85;;;;;;;;;;5054134;28;20452;-46
2021/07/01 10:10:25;;;;;;;16.77;11.98;;;;;;;;;;5053129;28;20100;-43
2021/07/01 10:12:53;;;;;;;14.73;11.32;;;;;;;;;;5054232;28;20041;-43
2021/07/01 10:15:32;;;;;;;10.45;7.32;;;;;;;;;;5054125;28;20052;-44
2021/07/01 10:18:07;;;;;;;31.50;20.27;;;;;;;;;;5054136;28;20024;-41
2021/07/01 10:20:40;;;;;;;16.15;8.65;;;;;;;;;;5054275;28;20021;-42
2021/07/01 10:23:21;;;;;;;12.23;8.55;;;;;;;;;;5054079;28;20076;-44
2021/07/01 10:25:48;;;;;;;15.00;10.23;;;;;;;;;;5054063;28;20033;-43
2021/07/01 10:28:15;;;;;;;76.55;47.55;;;;;;;;;;5053974;28;20017;-42
2021/07/01 10:30:42;;;;;;;42.03;27.35;;;;;;;;;;5054046;28;20108;-43
2021/07/01 10:33:22;;;;;;;12.75;8.55;;;;;;;;;;5053896;28;20029;-42
2021/07/01 10:35:49;;;;;;;9.27;5.93;;;;;;;;;;5053906;28;20017;-42
2021/07/01 10:38:15;;;;;;;53.85;33.60;;;;;;;;;;5053775;28;20047;-43
2021/07/01 10:40:42;;;;;;;15.43;8.82;;;;;;;;;;5053711;28;20070;-42
2021/07/01 10:43:08;;;;;;;30.65;20.88;;;;;;;;;;5052884;28;20104;-42
2021/07/01 10:45:35;;;;;;;35.88;22.60;;;;;;;;;;5053774;28;20033;-43
2021/07/01 10:48:20;;;;;;;38.35;25.25;;;;;;;;;;5052186;28;20020;-42
2021/07/01 10:50:47;;;;;;;86.43;53.08;;;;;;;;;;5049913;28;20039;-44
2021/07/01 10:53:26;;;;;;;76.80;41.30;;;;;;;;;;5052222;28;20473;-44
2021/07/01 10:55:53;;;;;;;55.28;34.90;;;;;;;;;;5050253;28;20025;-42
2021/07/01 10:58:19;;;;;;;87.35;56.95;;;;;;;;;;5052045;28;20452;-43
2021/07/01 11:00:46;;;;;;;49.63;33.10;;;;;;;;;;5052126;28;20024;-42
2021/07/01 11:03:25;;;;;;;102.38;66.43;;;;;;;;;;5051915;28;20078;-43
2021/07/01 11:05:51;;;;;;;24.38;16.00;;;;;;;;;;5050300;28;20025;-42
2021/07/01 11:08:28;;;;;;;32.25;10.32;;;;;;;;;;5053271;28;20104;-42
2021/07/01 11:10:54;;;;;;;129.68;36.45;;;;;;;;;;5053316;28;20025;-44
2021/07/01 11:13:24;;;;;;;221.10;123.80;;;;;;;;;;5053051;28;20424;-43
2021/07/01 11:16:09;;;;;;;69.72;36.58;;;;;;;;;;5052868;28;20085;-43
2021/07/01 11:18:41;;;;;;;190.98;87.95;;;;;;;;;;5053023;28;20029;-43
2021/07/01 11:21:08;;;;;;;29.05;13.40;;;;;;;;;;5053302;28;20039;-44
2021/07/01 11:23:34;;;;;;;14.32;6.50;;;;;;;;;;5053197;28;20036;-43
2021/07/01 11:26:00;;;;;;;34.58;17.65;;;;;;;;;;5053301;28;20032;-44
2021/07/01 11:28:29;;;;;;;27.10;13.85;;;;;;;;;;5053638;28;20029;-43
2021/07/01 11:30:59;;;;;;;10.75;4.75;;;;;;;;;;5051467;28;20454;-44
2021/07/01 11:33:25;;;;;;;10.32;3.75;;;;;;;;;;5053039;28;20021;-43
2021/07/01 11:35:51;;;;;;;9.05;4.32;;;;;;;;;;5053326;28;20032;-43
2021/07/01 11:38:25;;;;;;;17.25;9.38;;;;;;;;;;5053302;28;20029;-44
2021/07/01 11:40:51;;;;;;;10.23;5.00;;;;;;;;;;5053156;28;20036;-43
2021/07/01 11:43:18;;;;;;;12.32;4.95;;;;;;;;;;5053180;28;20032;-43
2021/07/01 11:45:44;;;;;;;8.00;3.25;;;;;;;;;;5053025;28;20397;-43
2021/07/01 11:48:10;;;;;;;4.38;1.58;;;;;;;;;;5052951;28;20032;-44
2021/07/01 11:50:36;;;;;;;3.88;0.82;;;;;;;;;;5052850;28;20484;-44
2021/07/01 11:53:03;;;;;;;7.50;3.63;;;;;;;;;;5054160;28;20029;-44
2021/07/01 11:55:29;;;;;;;7.85;2.10;;;;;;;;;;5057069;28;20366;-43
2021/07/01 11:57:55;;;;;;;2.13;1.20;;;;;;;;;;5056877;28;20032;-43
2021/07/01 12:00:23;;;;;;;6.00;2.40;;;;;;;;;;5056976;28;20017;-43
2021/07/01 12:02:50;;;;;;;2.17;0.98;;;;;;;;;;5056770;28;20047;-43
2021/07/01 12:05:16;;;;;;;4.70;1.45;;;;;;;;;;5057120;28;20028;-44
2021/07/01 12:07:43;;;;;;;1.83;1.00;;;;;;;;;;5057004;28;20489;-43
2021/07/01 12:10:10;;;;;;;3.05;1.05;;;;;;;;;;5056970;28;20021;-43
2021/07/01 12:12:38;;;;;;;2.47;0.82;;;;;;;;;;5056758;28;20393;-43
2021/07/01 12:15:11;;;;;;;3.20;1.10;;;;;;;;;;5056490;28;20048;-44
2021/07/01 12:17:51;;;;;;;1.15;0.63;;;;;;;;;;5056744;28;20017;-44
2021/07/01 12:20:47;;;;;;;2.42;1.15;;;;;;;;;;5056589;28;20108;-44
2021/07/01 12:23:15;;;;;;;2.22;0.75;;;;;;;;;;5034471;28;20171;-44
2021/07/01 12:25:41;;;;;;;1.85;0.80;;;;;;;;;;5034744;28;20405;-43
2021/07/01 12:28:07;;;;;;;0.88;0.60;;;;;;;;;;5034210;28;20036;-44
2021/07/01 12:30:56;;;;;;;4.63;0.77;;;;;;;;;;5034355;28;20029;-43
2021/07/01 12:33:34;;;;;;;4.78;1.30;;;;;;;;;;5034694;28;20072;-43
2021/07/01 12:36:21;;;;;;;2.35;0.80;;;;;;;;;;5034362;28;20381;-44
2021/07/01 12:39:05;;;;;;;0.90;0.57;;;;;;;;;;5030701;28;20037;-44
2021/07/01 12:41:31;;;;;;;2.88;0.68;;;;;;;;;;5033976;28;20024;-43
2021/07/01 12:43:59;;;;;;;2.30;0.50;;;;;;;;;;5033959;28;20389;-44
2021/07/01 12:46:40;;;;;;;2.38;0.93;;;;;;;;;;5034174;28;20034;-43
2021/07/01 12:49:06;;;;;;;2.75;0.90;;;;;;;;;;5034100;28;20034;-43
2021/07/01 12:51:42;;;;;;;3.88;0.80;;;;;;;;;;5034115;28;20034;-43
2021/07/01 12:54:37;;;;;;;2.08;0.50;;;;;;;;;;5033994;28;20037;-43
2021/07/01 12:57:03;;;;;;;0.95;0.70;;;;;;;;;;5013994;28;20433;-43
2021/07/01 12:59:31;;;;;;;0.52;0.50;;;;;;;;;;5014101;28;20044;-43
2021/07/01 13:02:04;;;;;;;1.55;0.80;;;;;;;;;;5013961;28;20034;-43
2021/07/01 13:04:31;;;;;;;0.77;0.43;;;;;;;;;;5013099;28;20058;-43
2021/07/01 13:06:58;;;;;;;1.48;0.70;;;;;;;;;;5013870;28;20041;-44
2021/07/01 13:09:27;;;;;;;2.78;0.98;;;;;;;;;;5014104;28;20026;-43
2021/07/01 13:11:53;;;;;;;2.47;0.82;;;;;;;;;;5013605;28;20541;-44
2021/07/01 13:14:22;;;;;;;2.63;1.45;;;;;;;;;;5013453;28;20099;-43
2021/07/01 13:17:04;;;;;;;5.72;2.30;;;;;;;;;;5013708;28;20034;-42
2021/07/01 13:19:31;;;;;;;18.65;10.73;;;;;;;;;;5013898;28;20070;-42
2021/07/01 13:21:58;;;;;;;13.18;9.45;;;;;;;;;;5013589;28;20084;-43
2021/07/01 13:24:25;;;;;;;4.07;1.67;;;;;;;;;;5013582;28;20057;-42
2021/07/01 13:26:56;;;;;;;0.93;0.60;;;;;;;;;;5013444;28;20042;-44
2021/07/01 13:29:39;;;;;;;2.72;0.98;;;;;;;;;;5013546;28;20034;-43
2021/07/01 13:32:06;;;;;;;3.67;0.70;;;;;;;;;;5013604;28;20092;-43
2021/07/01 13:34:32;;;;;;;0.77;0.55;;;;;;;;;;5038668;28;20628;-42
2021/07/01 13:37:17;;;;;;;1.35;0.68;;;;;;;;;;5025164;28;20087;-41
2021/07/01 13:39:44;;;;;;;0.65;0.60;;;;;;;;;;5024253;28;20311;-42
2021/07/01 13:42:36;;;;;;;3.13;1.20;;;;;;;;;;5023936;28;20032;-42
2021/07/01 13:45:07;;;;;;;3.22;0.75;;;;;;;;;;5024620;28;20660;-42
2021/07/01 13:47:41;;;;;;;0.57;0.50;;;;;;;;;;5023802;28;20524;-42
2021/07/01 13:50:08;;;;;;;1.13;0.60;;;;;;;;;;5023690;28;20082;-42
2021/07/01 13:52:35;;;;;;;2.78;0.70;;;;;;;;;;5023655;28;20138;-42
2021/07/01 13:55:01;;;;;;;1.05;0.45;;;;;;;;;;5023781;28;20029;-42
2021/07/01 13:57:28;;;;;;;16.05;9.02;;;;;;;;;;5023621;28;20029;-41
2021/07/01 13:59:56;;;;;;;32.17;22.15;;;;;;;;;;5023686;28;20029;-42
2021/07/01 14:02:22;;;;;;;23.45;18.35;;;;;;;;;;5024661;28;20547;-42
2021/07/01 14:04:49;;;;;;;4.45;3.10;;;;;;;;;;5023781;28;20027;-42
2021/07/01 14:07:25;;;;;;;6.18;3.95;;;;;;;;;;5023699;28;20024;-42
2021/07/01 14:09:51;;;;;;;4.22;2.03;;;;;;;;;;5023496;28;20029;-42
2021/07/01 14:12:19;;;;;;;2.80;1.17;;;;;;;;;;5023154;28;20072;-41
2021/07/01 14:14:45;;;;;;;4.72;1.00;;;;;;;;;;5024497;28;20123;-42
2021/07/01 14:17:11;;;;;;;1.02;0.80;;;;;;;;;;5023088;28;20032;-42
2021/07/01 14:19:37;;;;;;;1.08;0.55;;;;;;;;;;5023569;28;20025;-42
2021/07/01 14:22:06;;;;;;;0.85;0.40;;;;;;;;;;5023344;28;20509;-42
2021/07/01 14:24:33;;;;;;;0.57;0.57;;;;;;;;;;5023248;28;20024;-42
2021/07/01 14:27:03;;;;;;;3.33;0.50;;;;;;;;;;5023343;28;20122;-42
2021/07/01 14:29:29;;;;;;;0.80;0.50;;;;;;;;;;5024346;28;20422;-42
2021/07/01 14:31:59;;;;;;;1.23;0.70;;;;;;;;;;5023068;28;20710;-41
2021/07/01 14:34:32;;;;;;;2.13;0.43;;;;;;;;;;5022966;28;20691;-42
2021/07/01 14:36:58;;;;;;;1.85;0.40;;;;;;;;;;5023140;28;20033;-42
2021/07/01 14:39:25;;;;;;;1.50;0.98;;;;;;;;;;5022998;28;20377;-41
2021/07/01 14:42:04;;;;;;;0.82;0.50;;;;;;;;;;5023039;28;20598;-42